sensor_id;sensor_type;location;lat;lon;timestamp;pressure;altitude;pressure_sealevel;temperature;humidity
7768;BME280;3928;42.626;23.382;2023-03-15T00:00:24;93198.38;;;10.32;33.31
7768;BME280;3928;42.626;23.382;2023-03-15T00:02:51;93199.81;;;10.39;33.58
7768;BME280;3928;42.626;23.382;2023-03-15T00:05:18;93185.38;;;10.37;33.66
7768;BME280;3928;42.626;23.382;2023-03-15T00:07:46;93187.06;;;10.38;33.81
7768;BME280;3928;42.626;23.382;2023-03-15T00:10:15;93166.81;;;10.30;33.46
7768;BME280;3928;42.626;23.382;2023-03-15T00:12:42;93171.44;;;10.45;33.26
7768;BME280;3928;42.626;23.382;2023-03-15T00:15:12;93009.94;;;9.44;33.69
7768;BME280;3928;42.626;23.382;2023-03-15T00:17:39;93129.66;;;10.15;33.39
7768;BME280;3928;42.626;23.382;2023-03-15T00:20:07;93181.81;;;10.42;33.19
7768;BME280;3928;42.626;23.382;2023-03-15T00:22:35;93182.34;;;10.50;33.27
7768;BME280;3928;42.626;23.382;2023-03-15T00:25:02;93177.09;;;10.55;32.76
7768;BME280;3928;42.626;23.382;2023-03-15T00:27:30;93187.28;;;10.57;32.99
7768;BME280;3928;42.626;23.382;2023-03-15T00:29:57;93182.81;;;10.62;32.34
7768;BME280;3928;42.626;23.382;2023-03-15T00:32:23;93190.16;;;10.72;32.23
7768;BME280;3928;42.626;23.382;2023-03-15T00:34:50;93185.72;;;10.76;32.19
7768;BME280;3928;42.626;23.382;2023-03-15T00:37:19;93183.84;;;10.81;32.00
7768;BME280;3928;42.626;23.382;2023-03-15T00:39:46;93168.47;;;10.81;32.38
7768;BME280;3928;42.626;23.382;2023-03-15T00:42:13;93166.66;;;10.83;32.47
7768;BME280;3928;42.626;23.382;2023-03-15T00:44:43;93173.41;;;10.86;31.99
7768;BME280;3928;42.626;23.382;2023-03-15T00:47:10;93169.13;;;10.86;32.59
7768;BME280;3928;42.626;23.382;2023-03-15T00:49:37;93173.88;;;10.97;32.06
7768;BME280;3928;42.626;23.382;2023-03-15T00:52:04;93166.94;;;10.99;32.37
7768;BME280;3928;42.626;23.382;2023-03-15T00:54:31;93169.19;;;11.08;32.04
7768;BME280;3928;42.626;23.382;2023-03-15T00:56:58;93156.47;;;11.05;32.09
7768;BME280;3928;42.626;23.382;2023-03-15T00:59:27;93161.97;;;11.18;32.70
7768;BME280;3928;42.626;23.382;2023-03-15T01:01:55;93150.03;;;11.17;32.56
7768;BME280;3928;42.626;23.382;2023-03-15T01:04:22;93155.63;;;11.28;32.33
7768;BME280;3928;42.626;23.382;2023-03-15T01:06:49;93148.50;;;11.34;32.70
7768;BME280;3928;42.626;23.382;2023-03-15T01:09:15;93141.25;;;11.22;31.89
7768;BME280;3928;42.626;23.382;2023-03-15T01:11:42;93128.94;;;11.08;32.19
7768;BME280;3928;42.626;23.382;2023-03-15T01:14:09;93140.44;;;10.98;31.83
7768;BME280;3928;42.626;23.382;2023-03-15T01:16:36;93139.59;;;10.98;32.14
7768;BME280;3928;42.626;23.382;2023-03-15T01:19:04;93127.84;;;10.92;32.38
7768;BME280;3928;42.626;23.382;2023-03-15T01:21:31;93124.06;;;10.79;32.71
7768;BME280;3928;42.626;23.382;2023-03-15T01:23:57;93123.09;;;10.81;33.13
7768;BME280;3928;42.626;23.382;2023-03-15T01:26:26;93115.56;;;10.77;33.12
7768;BME280;3928;42.626;23.382;2023-03-15T01:28:53;93121.50;;;10.79;33.32
7768;BME280;3928;42.626;23.382;2023-03-15T01:31:22;93130.13;;;10.76;33.72
7768;BME280;3928;42.626;23.382;2023-03-15T01:33:50;93128.28;;;10.80;33.82
7768;BME280;3928;42.626;23.382;2023-03-15T01:36:18;93117.28;;;10.76;33.58
7768;BME280;3928;42.626;23.382;2023-03-15T01:38:45;93108.72;;;10.77;33.48
7768;BME280;3928;42.626;23.382;2023-03-15T01:41:14;93112.16;;;10.76;33.53
7768;BME280;3928;42.626;23.382;2023-03-15T01:43:41;93108.88;;;10.73;33.41
7768;BME280;3928;42.626;23.382;2023-03-15T01:46:20;93103.09;;;10.68;33.81
7768;BME280;3928;42.626;23.382;2023-03-15T01:48:52;93089.34;;;10.45;33.42
7768;BME280;3928;42.626;23.382;2023-03-15T01:51:27;93099.31;;;10.53;33.94
7768;BME280;3928;42.626;23.382;2023-03-15T01:53:59;93098.09;;;10.40;33.68
7768;BME280;3928;42.626;23.382;2023-03-15T01:56:28;93089.69;;;10.36;34.24
7768;BME280;3928;42.626;23.382;2023-03-15T01:58:57;93083.50;;;10.42;34.28
7768;BME280;3928;42.626;23.382;2023-03-15T02:01:26;93085.63;;;10.31;34.76
7768;BME280;3928;42.626;23.382;2023-03-15T02:03:58;93099.81;;;10.39;34.65
7768;BME280;3928;42.626;23.382;2023-03-15T02:06:28;93083.06;;;10.54;34.36
7768;BME280;3928;42.626;23.382;2023-03-15T02:09:02;93090.34;;;10.65;34.15
7768;BME280;3928;42.626;23.382;2023-03-15T02:11:30;93084.06;;;10.73;34.75
7768;BME280;3928;42.626;23.382;2023-03-15T02:13:57;93060.31;;;10.68;33.83
7768;BME280;3928;42.626;23.382;2023-03-15T02:16:25;93059.84;;;10.80;34.32
7768;BME280;3928;42.626;23.382;2023-03-15T02:18:53;93048.63;;;10.83;34.12
7768;BME280;3928;42.626;23.382;2023-03-15T02:21:32;93053.25;;;10.73;34.96
7768;BME280;3928;42.626;23.382;2023-03-15T02:24:10;93053.00;;;10.58;34.12
7768;BME280;3928;42.626;23.382;2023-03-15T02:26:43;93051.34;;;10.57;34.04
7768;BME280;3928;42.626;23.382;2023-03-15T02:29:12;93053.97;;;10.53;34.26
7768;BME280;3928;42.626;23.382;2023-03-15T02:31:39;93053.44;;;10.45;35.02
7768;BME280;3928;42.626;23.382;2023-03-15T02:34:06;93044.53;;;10.32;36.03
7768;BME280;3928;42.626;23.382;2023-03-15T02:36:35;93049.31;;;10.41;35.69
7768;BME280;3928;42.626;23.382;2023-03-15T02:39:13;93058.53;;;10.47;35.55
7768;BME280;3928;42.626;23.382;2023-03-15T02:41:42;93035.66;;;10.41;35.73
7768;BME280;3928;42.626;23.382;2023-03-15T02:44:15;93032.09;;;10.45;35.66
7768;BME280;3928;42.626;23.382;2023-03-15T02:46:45;93049.75;;;10.52;35.92
7768;BME280;3928;42.626;23.382;2023-03-15T02:49:14;93047.44;;;10.46;36.63
7768;BME280;3928;42.626;23.382;2023-03-15T02:51:42;93048.59;;;10.38;36.39
7768;BME280;3928;42.626;23.382;2023-03-15T02:54:09;93041.00;;;10.35;36.75
7768;BME280;3928;42.626;23.382;2023-03-15T02:56:36;93051.03;;;10.41;36.41
7768;BME280;3928;42.626;23.382;2023-03-15T02:59:03;93045.19;;;10.37;36.49
7768;BME280;3928;42.626;23.382;2023-03-15T03:01:31;93048.75;;;10.33;36.39
7768;BME280;3928;42.626;23.382;2023-03-15T03:04:01;93047.28;;;10.26;36.87
7768;BME280;3928;42.626;23.382;2023-03-15T03:06:28;93042.50;;;10.15;36.52
7768;BME280;3928;42.626;23.382;2023-03-15T03:08:55;93032.75;;;10.02;36.65
7768;BME280;3928;42.626;23.382;2023-03-15T03:11:22;93037.00;;;10.03;37.08
7768;BME280;3928;42.626;23.382;2023-03-15T03:13:49;93022.81;;;9.92;37.33
7768;BME280;3928;42.626;23.382;2023-03-15T03:16:15;93021.56;;;9.79;37.81
7768;BME280;3928;42.626;23.382;2023-03-15T03:18:44;93021.25;;;9.38;38.80
7768;BME280;3928;42.626;23.382;2023-03-15T03:21:10;93019.03;;;9.28;39.03
7768;BME280;3928;42.626;23.382;2023-03-15T03:23:39;93020.16;;;9.19;39.37
7768;BME280;3928;42.626;23.382;2023-03-15T03:26:12;93014.41;;;9.13;40.12
7768;BME280;3928;42.626;23.382;2023-03-15T03:28:41;93009.81;;;9.22;39.75
7768;BME280;3928;42.626;23.382;2023-03-15T03:31:15;93000.94;;;9.32;39.54
7768;BME280;3928;42.626;23.382;2023-03-15T03:33:43;92987.41;;;9.29;39.89
7768;BME280;3928;42.626;23.382;2023-03-15T03:36:10;92986.28;;;9.37;40.37
7768;BME280;3928;42.626;23.382;2023-03-15T03:38:39;92991.47;;;9.36;39.92
7768;BME280;3928;42.626;23.382;2023-03-15T03:41:06;93001.06;;;9.29;40.03
7768;BME280;3928;42.626;23.382;2023-03-15T03:43:33;93006.00;;;9.35;40.02
7768;BME280;3928;42.626;23.382;2023-03-15T03:46:00;92990.56;;;9.11;40.85
7768;BME280;3928;42.626;23.382;2023-03-15T03:48:26;92990.94;;;9.00;41.69
7768;BME280;3928;42.626;23.382;2023-03-15T03:50:55;92932.81;;;8.77;41.09
7768;BME280;3928;42.626;23.382;2023-03-15T03:53:21;92990.72;;;9.06;41.50
7768;BME280;3928;42.626;23.382;2023-03-15T03:55:48;92990.63;;;9.09;41.34
7768;BME280;3928;42.626;23.382;2023-03-15T03:58:15;92970.81;;;8.88;42.58
7768;BME280;3928;42.626;23.382;2023-03-15T04:00:42;92968.59;;;8.78;43.25
7768;BME280;3928;42.626;23.382;2023-03-15T04:03:09;92988.84;;;8.57;44.21
7768;BME280;3928;42.626;23.382;2023-03-15T04:05:36;92984.47;;;8.60;43.99
7768;BME280;3928;42.626;23.382;2023-03-15T04:08:04;92985.97;;;8.67;44.22
7768;BME280;3928;42.626;23.382;2023-03-15T04:10:31;92977.97;;;8.50;44.90
7768;BME280;3928;42.626;23.382;2023-03-15T04:13:00;92970.81;;;8.61;45.01
7768;BME280;3928;42.626;23.382;2023-03-15T04:15:27;92973.88;;;8.72;44.51
7768;BME280;3928;42.626;23.382;2023-03-15T04:17:54;92969.38;;;8.81;44.72
7768;BME280;3928;42.626;23.382;2023-03-15T04:20:21;92959.81;;;8.86;44.67
7768;BME280;3928;42.626;23.382;2023-03-15T04:22:49;92962.97;;;8.67;45.01
7768;BME280;3928;42.626;23.382;2023-03-15T04:25:17;92966.78;;;8.54;45.86
7768;BME280;3928;42.626;23.382;2023-03-15T04:27:44;92954.25;;;8.17;46.66
7768;BME280;3928;42.626;23.382;2023-03-15T04:30:22;92966.19;;;8.15;46.78
7768;BME280;3928;42.626;23.382;2023-03-15T04:32:51;92958.78;;;8.37;45.37
7768;BME280;3928;42.626;23.382;2023-03-15T04:35:24;92962.41;;;8.58;45.20
7768;BME280;3928;42.626;23.382;2023-03-15T04:37:51;92959.31;;;8.74;45.05
7768;BME280;3928;42.626;23.382;2023-03-15T04:40:20;92958.84;;;8.90;44.83
7768;BME280;3928;42.626;23.382;2023-03-15T04:42:54;92958.47;;;9.02;44.34
7768;BME280;3928;42.626;23.382;2023-03-15T04:45:21;92963.75;;;8.96;44.89
7768;BME280;3928;42.626;23.382;2023-03-15T04:47:49;92959.75;;;8.89;45.56
7768;BME280;3928;42.626;23.382;2023-03-15T04:50:16;92959.97;;;8.81;45.32
7768;BME280;3928;42.626;23.382;2023-03-15T04:52:43;92957.75;;;8.70;45.59
7768;BME280;3928;42.626;23.382;2023-03-15T04:55:10;92965.78;;;8.58;46.38
7768;BME280;3928;42.626;23.382;2023-03-15T04:57:38;92972.72;;;8.55;46.40
7768;BME280;3928;42.626;23.382;2023-03-15T05:00:07;92965.66;;;8.63;46.17
7768;BME280;3928;42.626;23.382;2023-03-15T05:02:36;92972.81;;;8.79;46.35
7768;BME280;3928;42.626;23.382;2023-03-15T05:05:06;92970.69;;;8.92;46.22
7768;BME280;3928;42.626;23.382;2023-03-15T05:07:33;92967.97;;;8.97;45.39
7768;BME280;3928;42.626;23.382;2023-03-15T05:10:01;92968.81;;;8.97;45.31
7768;BME280;3928;42.626;23.382;2023-03-15T05:12:28;92971.88;;;9.08;45.88
7768;BME280;3928;42.626;23.382;2023-03-15T05:14:56;92964.91;;;9.14;45.48
7768;BME280;3928;42.626;23.382;2023-03-15T05:17:23;92964.78;;;9.17;45.06
7768;BME280;3928;42.626;23.382;2023-03-15T05:19:50;92956.56;;;9.07;45.90
7768;BME280;3928;42.626;23.382;2023-03-15T05:22:17;92953.91;;;9.10;45.28
7768;BME280;3928;42.626;23.382;2023-03-15T05:24:44;92966.06;;;9.03;45.56
7768;BME280;3928;42.626;23.382;2023-03-15T05:27:11;92936.06;;;8.56;47.04
7768;BME280;3928;42.626;23.382;2023-03-15T05:29:38;92964.97;;;8.84;46.64
7768;BME280;3928;42.626;23.382;2023-03-15T05:32:06;92951.63;;;8.74;47.82
7768;BME280;3928;42.626;23.382;2023-03-15T05:34:33;92955.63;;;8.83;47.47
7768;BME280;3928;42.626;23.382;2023-03-15T05:37:00;92949.91;;;8.76;47.50
7768;BME280;3928;42.626;23.382;2023-03-15T05:39:26;92948.13;;;8.78;47.67
7768;BME280;3928;42.626;23.382;2023-03-15T05:41:54;92956.47;;;8.84;47.14
7768;BME280;3928;42.626;23.382;2023-03-15T05:44:21;92961.97;;;8.98;46.99
7768;BME280;3928;42.626;23.382;2023-03-15T05:46:48;92949.69;;;9.09;47.11
7768;BME280;3928;42.626;23.382;2023-03-15T05:49:16;92942.25;;;9.28;46.38
7768;BME280;3928;42.626;23.382;2023-03-15T05:51:43;92945.88;;;9.46;45.35
7768;BME280;3928;42.626;23.382;2023-03-15T05:54:10;92948.13;;;9.55;44.42
7768;BME280;3928;42.626;23.382;2023-03-15T05:56:37;92964.91;;;9.63;44.71
7768;BME280;3928;42.626;23.382;2023-03-15T05:59:03;92959.84;;;9.62;44.71
7768;BME280;3928;42.626;23.382;2023-03-15T06:01:31;92961.03;;;9.77;44.55
7768;BME280;3928;42.626;23.382;2023-03-15T06:03:57;92959.72;;;9.90;50.30
7768;BME280;3928;42.626;23.382;2023-03-15T06:06:26;92954.28;;;10.22;62.26
7768;BME280;3928;42.626;23.382;2023-03-15T06:08:53;92964.81;;;10.38;44.73
7768;BME280;3928;42.626;23.382;2023-03-15T06:11:20;92966.59;;;10.36;45.36
7768;BME280;3928;42.626;23.382;2023-03-15T06:13:47;92954.59;;;10.37;45.06
7768;BME280;3928;42.626;23.382;2023-03-15T06:16:14;92949.91;;;10.48;46.62
7768;BME280;3928;42.626;23.382;2023-03-15T06:18:40;92948.47;;;10.63;51.96
7768;BME280;3928;42.626;23.382;2023-03-15T06:21:07;92947.22;;;10.51;45.87
7768;BME280;3928;42.626;23.382;2023-03-15T06:23:36;92949.31;;;10.85;49.05
7768;BME280;3928;42.626;23.382;2023-03-15T06:26:03;92953.56;;;11.28;49.20
7768;BME280;3928;42.626;23.382;2023-03-15T06:28:30;92947.97;;;11.59;46.70
7768;BME280;3928;42.626;23.382;2023-03-15T06:30:57;92934.38;;;11.98;48.16
7768;BME280;3928;42.626;23.382;2023-03-15T06:33:32;92931.19;;;12.49;45.73
7768;BME280;3928;42.626;23.382;2023-03-15T06:36:12;92893.34;;;12.51;40.62
7768;BME280;3928;42.626;23.382;2023-03-15T06:38:41;92924.13;;;12.91;42.44
7768;BME280;3928;42.626;23.382;2023-03-15T06:41:08;92948.16;;;13.26;40.81
7768;BME280;3928;42.626;23.382;2023-03-15T06:43:37;92945.22;;;13.33;42.02
7768;BME280;3928;42.626;23.382;2023-03-15T06:46:04;92932.81;;;13.41;37.75
7768;BME280;3928;42.626;23.382;2023-03-15T06:48:31;92942.50;;;13.54;37.30
7768;BME280;3928;42.626;23.382;2023-03-15T06:50:58;92936.31;;;13.40;36.85
7768;BME280;3928;42.626;23.382;2023-03-15T06:53:26;92933.78;;;13.22;36.41
7768;BME280;3928;42.626;23.382;2023-03-15T06:55:54;92941.69;;;13.00;36.78
7768;BME280;3928;42.626;23.382;2023-03-15T06:58:22;92934.66;;;12.67;38.22
7768;BME280;3928;42.626;23.382;2023-03-15T07:00:51;92926.59;;;12.56;38.01
7768;BME280;3928;42.626;23.382;2023-03-15T07:03:26;92926.44;;;12.40;37.51
7768;BME280;3928;42.626;23.382;2023-03-15T07:06:09;92929.38;;;12.33;38.28
7768;BME280;3928;42.626;23.382;2023-03-15T07:09:07;92910.19;;;12.40;38.09
7768;BME280;3928;42.626;23.382;2023-03-15T07:11:58;92923.38;;;12.70;38.36
7768;BME280;3928;42.626;23.382;2023-03-15T07:14:25;92927.44;;;12.93;37.44
7768;BME280;3928;42.626;23.382;2023-03-15T07:16:51;92930.09;;;13.08;36.14
7768;BME280;3928;42.626;23.382;2023-03-15T07:19:18;92927.03;;;13.36;35.99
7768;BME280;3928;42.626;23.382;2023-03-15T07:21:45;92926.44;;;13.66;35.55
7768;BME280;3928;42.626;23.382;2023-03-15T07:24:14;92909.13;;;13.85;35.79
7768;BME280;3928;42.626;23.382;2023-03-15T07:26:53;92927.25;;;14.17;35.55
7768;BME280;3928;42.626;23.382;2023-03-15T07:29:22;92919.59;;;14.31;34.86
7768;BME280;3928;42.626;23.382;2023-03-15T07:31:49;92921.03;;;14.37;34.61
7768;BME280;3928;42.626;23.382;2023-03-15T07:34:16;92921.16;;;14.18;34.32
7768;BME280;3928;42.626;23.382;2023-03-15T07:36:43;92941.41;;;14.25;33.90
7768;BME280;3928;42.626;23.382;2023-03-15T07:39:10;92941.44;;;14.41;33.90
7768;BME280;3928;42.626;23.382;2023-03-15T07:41:37;92937.16;;;14.57;33.67
7768;BME280;3928;42.626;23.382;2023-03-15T07:44:04;92926.16;;;14.70;33.36
7768;BME280;3928;42.626;23.382;2023-03-15T07:46:33;92924.56;;;14.67;32.46
7768;BME280;3928;42.626;23.382;2023-03-15T07:48:59;92928.16;;;14.80;33.07
7768;BME280;3928;42.626;23.382;2023-03-15T07:51:26;92937.97;;;15.05;32.80
7768;BME280;3928;42.626;23.382;2023-03-15T07:53:53;92926.28;;;15.14;32.55
7768;BME280;3928;42.626;23.382;2023-03-15T07:56:20;92868.16;;;14.91;31.70
7768;BME280;3928;42.626;23.382;2023-03-15T07:58:46;92923.59;;;15.31;31.80
7768;BME280;3928;42.626;23.382;2023-03-15T08:01:13;92930.38;;;15.48;31.48
7768;BME280;3928;42.626;23.382;2023-03-15T08:03:41;92919.41;;;15.59;31.89
7768;BME280;3928;42.626;23.382;2023-03-15T08:06:08;92866.22;;;15.25;31.89
7768;BME280;3928;42.626;23.382;2023-03-15T08:08:35;92927.06;;;15.76;31.13
7768;BME280;3928;42.626;23.382;2023-03-15T08:11:03;92917.56;;;15.91;30.92
7768;BME280;3928;42.626;23.382;2023-03-15T08:13:30;92907.66;;;15.97;30.89
7768;BME280;3928;42.626;23.382;2023-03-15T08:15:57;92912.69;;;16.15;31.20
7768;BME280;3928;42.626;23.382;2023-03-15T08:18:24;92904.91;;;16.15;31.58
7768;BME280;3928;42.626;23.382;2023-03-15T08:20:54;92880.97;;;16.25;31.45
7768;BME280;3928;42.626;23.382;2023-03-15T08:23:21;92878.88;;;16.59;30.85
7768;BME280;3928;42.626;23.382;2023-03-15T08:25:48;92894.78;;;16.81;30.41
7768;BME280;3928;42.626;23.382;2023-03-15T08:28:15;92884.38;;;16.95;30.14
7768;BME280;3928;42.626;23.382;2023-03-15T08:30:42;92856.78;;;16.94;30.09
7768;BME280;3928;42.626;23.382;2023-03-15T08:33:09;92894.22;;;17.30;29.79
7768;BME280;3928;42.626;23.382;2023-03-15T08:35:36;92898.38;;;17.33;29.51
7768;BME280;3928;42.626;23.382;2023-03-15T08:38:05;92902.63;;;17.34;28.85
7768;BME280;3928;42.626;23.382;2023-03-15T08:40:32;92907.59;;;17.37;29.12
7768;BME280;3928;42.626;23.382;2023-03-15T08:42:59;92896.31;;;17.50;28.82
7768;BME280;3928;42.626;23.382;2023-03-15T08:45:26;92892.75;;;17.66;28.39
7768;BME280;3928;42.626;23.382;2023-03-15T08:47:54;92885.94;;;17.77;28.55
7768;BME280;3928;42.626;23.382;2023-03-15T08:50:21;92896.72;;;17.84;28.14
7768;BME280;3928;42.626;23.382;2023-03-15T08:52:48;92897.09;;;17.65;28.15
7768;BME280;3928;42.626;23.382;2023-03-15T08:55:16;92894.25;;;17.16;28.68
7768;BME280;3928;42.626;23.382;2023-03-15T08:57:43;92893.66;;;16.85;29.12
7768;BME280;3928;42.626;23.382;2023-03-15T09:00:11;92895.91;;;16.49;29.94
7768;BME280;3928;42.626;23.382;2023-03-15T09:02:42;92897.13;;;16.43;30.08
7768;BME280;3928;42.626;23.382;2023-03-15T09:05:09;92899.63;;;16.30;30.67
7768;BME280;3928;42.626;23.382;2023-03-15T09:07:37;92897.03;;;16.30;30.39
7768;BME280;3928;42.626;23.382;2023-03-15T09:10:04;92900.19;;;16.07;30.30
7768;BME280;3928;42.626;23.382;2023-03-15T09:12:33;92891.88;;;16.16;30.43
7768;BME280;3928;42.626;23.382;2023-03-15T09:14:59;92880.22;;;16.23;30.88
7768;BME280;3928;42.626;23.382;2023-03-15T09:17:26;92894.25;;;16.48;30.74
7768;BME280;3928;42.626;23.382;2023-03-15T09:19:53;92904.16;;;16.27;30.55
7768;BME280;3928;42.626;23.382;2023-03-15T09:22:20;92905.00;;;16.27;31.34
7768;BME280;3928;42.626;23.382;2023-03-15T09:24:47;92904.59;;;16.33;31.08
7768;BME280;3928;42.626;23.382;2023-03-15T09:27:13;92904.06;;;16.43;30.82
7768;BME280;3928;42.626;23.382;2023-03-15T09:29:42;92894.78;;;16.53;30.77
7768;BME280;3928;42.626;23.382;2023-03-15T09:32:08;92897.56;;;16.64;30.74
7768;BME280;3928;42.626;23.382;2023-03-15T09:34:36;92887.19;;;16.64;30.25
7768;BME280;3928;42.626;23.382;2023-03-15T09:37:03;92895.50;;;16.83;30.44
7768;BME280;3928;42.626;23.382;2023-03-15T09:39:30;92886.56;;;17.02;30.52
7768;BME280;3928;42.626;23.382;2023-03-15T09:41:59;92882.38;;;17.26;29.86
7768;BME280;3928;42.626;23.382;2023-03-15T09:44:40;92887.31;;;17.43;29.52
7768;BME280;3928;42.626;23.382;2023-03-15T09:47:19;92879.00;;;17.51;29.02
7768;BME280;3928;42.626;23.382;2023-03-15T09:49:52;92876.22;;;17.41;28.94
7768;BME280;3928;42.626;23.382;2023-03-15T09:52:26;92863.31;;;17.00;29.53
7768;BME280;3928;42.626;23.382;2023-03-15T09:54:57;92860.19;;;16.68;29.75
7768;BME280;3928;42.626;23.382;2023-03-15T09:57:32;92859.00;;;16.45;30.61
7768;BME280;3928;42.626;23.382;2023-03-15T10:00:02;92870.22;;;16.31;31.00
7768;BME280;3928;42.626;23.382;2023-03-15T10:02:32;92864.06;;;16.34;30.86
7768;BME280;3928;42.626;23.382;2023-03-15T10:05:03;92866.78;;;16.45;30.97
7768;BME280;3928;42.626;23.382;2023-03-15T10:07:31;92865.19;;;16.57;31.16
7768;BME280;3928;42.626;23.382;2023-03-15T10:09:58;92868.13;;;16.65;30.93
7768;BME280;3928;42.626;23.382;2023-03-15T10:12:29;92869.44;;;16.72;31.28
7768;BME280;3928;42.626;23.382;2023-03-15T10:15:04;92872.19;;;16.83;31.46
7768;BME280;3928;42.626;23.382;2023-03-15T10:17:42;92864.47;;;16.96;31.24
7768;BME280;3928;42.626;23.382;2023-03-15T10:20:16;92861.72;;;17.12;30.66
7768;BME280;3928;42.626;23.382;2023-03-15T10:22:49;92861.16;;;17.34;30.55
7768;BME280;3928;42.626;23.382;2023-03-15T10:25:20;92868.84;;;17.48;30.37
7768;BME280;3928;42.626;23.382;2023-03-15T10:27:53;92859.72;;;17.55;29.81
7768;BME280;3928;42.626;23.382;2023-03-15T10:30:23;92858.69;;;17.58;29.72
7768;BME280;3928;42.626;23.382;2023-03-15T10:32:56;92853.94;;;17.64;29.74
7768;BME280;3928;42.626;23.382;2023-03-15T10:35:24;92853.28;;;17.61;29.47
7768;BME280;3928;42.626;23.382;2023-03-15T10:37:51;92859.31;;;17.61;29.77
7768;BME280;3928;42.626;23.382;2023-03-15T10:40:39;92857.75;;;17.59;29.33
7768;BME280;3928;42.626;23.382;2023-03-15T10:43:18;92862.44;;;17.53;29.52
7768;BME280;3928;42.626;23.382;2023-03-15T10:45:59;92858.88;;;17.42;29.83
7768;BME280;3928;42.626;23.382;2023-03-15T10:48:29;92849.00;;;17.34;30.25
7768;BME280;3928;42.626;23.382;2023-03-15T10:50:58;92855.34;;;17.30;29.76
7768;BME280;3928;42.626;23.382;2023-03-15T10:53:26;92860.53;;;17.30;29.67
7768;BME280;3928;42.626;23.382;2023-03-15T10:56:01;92856.66;;;17.23;29.33
7768;BME280;3928;42.626;23.382;2023-03-15T10:58:39;92859.66;;;17.17;29.63
7768;BME280;3928;42.626;23.382;2023-03-15T11:01:07;92857.97;;;17.16;29.77
7768;BME280;3928;42.626;23.382;2023-03-15T11:03:40;92855.06;;;17.08;29.91
7768;BME280;3928;42.626;23.382;2023-03-15T11:06:19;92849.44;;;17.01;30.27
7768;BME280;3928;42.626;23.382;2023-03-15T11:08:46;92848.91;;;16.96;29.88
7768;BME280;3928;42.626;23.382;2023-03-15T11:11:13;92850.13;;;16.90;30.35
7768;BME280;3928;42.626;23.382;2023-03-15T11:13:41;92852.00;;;16.88;30.20
7768;BME280;3928;42.626;23.382;2023-03-15T11:16:19;92833.22;;;16.85;30.05
7768;BME280;3928;42.626;23.382;2023-03-15T11:18:50;92840.06;;;16.86;29.91
7768;BME280;3928;42.626;23.382;2023-03-15T11:21:24;92800.38;;;16.58;30.70
7768;BME280;3928;42.626;23.382;2023-03-15T11:23:53;92824.84;;;16.81;30.24
7768;BME280;3928;42.626;23.382;2023-03-15T11:26:23;92827.22;;;16.84;30.35
7768;BME280;3928;42.626;23.382;2023-03-15T11:28:54;92847.78;;;17.00;30.02
7768;BME280;3928;42.626;23.382;2023-03-15T11:31:26;92844.88;;;17.05;29.81
7768;BME280;3928;42.626;23.382;2023-03-15T11:33:57;92844.06;;;17.04;29.68
7768;BME280;3928;42.626;23.382;2023-03-15T11:36:28;92833.47;;;16.94;30.03
7768;BME280;3928;42.626;23.382;2023-03-15T11:38:58;92781.25;;;16.47;30.07
7768;BME280;3928;42.626;23.382;2023-03-15T11:41:30;92831.66;;;16.82;30.31
7768;BME280;3928;42.626;23.382;2023-03-15T11:44:04;92834.06;;;16.85;30.18
7768;BME280;3928;42.626;23.382;2023-03-15T11:46:41;92801.91;;;16.75;29.86
7768;BME280;3928;42.626;23.382;2023-03-15T11:49:14;92828.28;;;16.94;30.15
7768;BME280;3928;42.626;23.382;2023-03-15T11:51:43;92828.66;;;16.88;30.39
7768;BME280;3928;42.626;23.382;2023-03-15T11:54:12;92833.50;;;16.80;30.22
7768;BME280;3928;42.626;23.382;2023-03-15T11:56:53;92821.78;;;16.75;30.69
7768;BME280;3928;42.626;23.382;2023-03-15T11:59:26;92836.44;;;16.88;30.47
7768;BME280;3928;42.626;23.382;2023-03-15T12:01:58;92833.66;;;16.91;30.51
7768;BME280;3928;42.626;23.382;2023-03-15T12:04:40;92829.50;;;16.89;30.82
7768;BME280;3928;42.626;23.382;2023-03-15T12:07:37;92810.31;;;16.91;30.25
7768;BME280;3928;42.626;23.382;2023-03-15T12:10:43;92792.19;;;16.91;30.78
7768;BME280;3928;42.626;23.382;2023-03-15T12:13:25;92805.69;;;16.97;30.81
7768;BME280;3928;42.626;23.382;2023-03-15T12:15:52;92797.00;;;16.98;30.73
7768;BME280;3928;42.626;23.382;2023-03-15T12:18:24;92792.44;;;17.01;31.25
7768;BME280;3928;42.626;23.382;2023-03-15T12:21:04;92794.91;;;17.03;31.09
7768;BME280;3928;42.626;23.382;2023-03-15T12:23:37;92807.38;;;17.10;30.91
7768;BME280;3928;42.626;23.382;2023-03-15T12:26:06;92812.13;;;17.04;30.80
7768;BME280;3928;42.626;23.382;2023-03-15T12:28:36;92806.22;;;17.02;30.61
7768;BME280;3928;42.626;23.382;2023-03-15T12:31:05;92800.31;;;17.00;30.85
7768;BME280;3928;42.626;23.382;2023-03-15T12:33:42;92794.41;;;16.98;30.39
7768;BME280;3928;42.626;23.382;2023-03-15T12:36:17;92798.13;;;16.93;30.47
7768;BME280;3928;42.626;23.382;2023-03-15T12:38:58;92800.59;;;16.82;30.78
7768;BME280;3928;42.626;23.382;2023-03-15T12:41:39;92798.72;;;16.84;30.52
7768;BME280;3928;42.626;23.382;2023-03-15T12:44:36;92789.28;;;16.83;30.78
7768;BME280;3928;42.626;23.382;2023-03-15T12:47:05;92784.28;;;16.80;30.78
7768;BME280;3928;42.626;23.382;2023-03-15T12:49:35;92796.34;;;16.81;31.05
7768;BME280;3928;42.626;23.382;2023-03-15T12:52:05;92791.22;;;16.80;31.17
7768;BME280;3928;42.626;23.382;2023-03-15T12:54:39;92796.50;;;16.78;31.05
7768;BME280;3928;42.626;23.382;2023-03-15T12:57:10;92786.72;;;16.69;31.06
7768;BME280;3928;42.626;23.382;2023-03-15T12:59:43;92791.91;;;16.69;31.09
7768;BME280;3928;42.626;23.382;2023-03-15T13:02:28;92790.91;;;16.72;31.23
7768;BME280;3928;42.626;23.382;2023-03-15T13:05:02;92789.31;;;16.69;31.17
7768;BME280;3928;42.626;23.382;2023-03-15T13:07:44;92782.56;;;16.66;31.21
7768;BME280;3928;42.626;23.382;2023-03-15T13:10:31;92782.31;;;16.57;31.48
7768;BME280;3928;42.626;23.382;2023-03-15T13:13:20;92765.91;;;16.44;31.41
7768;BME280;3928;42.626;23.382;2023-03-15T13:16:00;92779.59;;;16.46;31.42
7768;BME280;3928;42.626;23.382;2023-03-15T13:18:34;92785.19;;;16.52;31.52
7768;BME280;3928;42.626;23.382;2023-03-15T13:21:11;92775.38;;;16.30;31.98
7768;BME280;3928;42.626;23.382;2023-03-15T13:23:48;92788.13;;;16.33;32.07
7768;BME280;3928;42.626;23.382;2023-03-15T13:26:24;92787.00;;;16.37;32.01